createdAt,value
2023-06-05T00:00:27.989Z,95235.00
2023-06-05T00:01:27.995Z,95235.00
2023-06-05T00:02:28.045Z,95239.00
2023-06-05T00:03:28.459Z,95237.00
2023-06-05T00:04:28.000Z,95237.00
2023-06-05T00:05:27.982Z,95239.00
2023-06-05T00:06:28.000Z,95243.00
2023-06-05T00:07:27.989Z,95243.00
2023-06-05T00:08:27.993Z,95243.00
2023-06-05T00:09:27.997Z,95243.00
2023-06-05T00:10:27.992Z,95245.00
2023-06-05T00:11:28.009Z,95241.00
2023-06-05T00:12:28.061Z,95243.00
2023-06-05T00:13:28.095Z,95241.00
2023-06-05T00:14:28.134Z,95243.00
2023-06-05T00:15:28.189Z,95239.00
2023-06-05T00:16:28.302Z,95237.00
2023-06-05T00:17:28.342Z,95237.00
2023-06-05T00:18:28.358Z,95235.00
2023-06-05T00:19:28.417Z,95235.00
2023-06-05T00:20:28.456Z,95233.00
2023-06-05T00:21:28.515Z,95233.00
2023-06-05T00:22:28.587Z,95237.00
2023-06-05T00:23:28.647Z,95233.00
2023-06-05T00:24:28.685Z,95231.00
2023-06-05T00:25:28.741Z,95231.00
2023-06-05T00:26:28.785Z,95231.00
2023-06-05T00:27:28.832Z,95227.00
2023-06-05T00:28:28.889Z,95229.00
2023-06-05T00:29:28.951Z,95225.00
2023-06-05T00:30:29.010Z,95223.00
2023-06-05T00:31:29.066Z,95227.00
2023-06-05T00:32:29.146Z,95225.00
2023-06-05T00:33:29.137Z,95223.00
2023-06-05T00:34:29.189Z,95227.00
2023-06-05T00:35:29.250Z,95223.00
2023-06-05T00:36:29.306Z,95223.00
2023-06-05T00:37:29.359Z,95223.00
2023-06-05T00:38:29.409Z,95221.00
2023-06-05T00:39:29.465Z,95219.00
2023-06-05T00:40:29.572Z,95219.00
2023-06-05T00:41:29.581Z,95219.00
2023-06-05T00:42:29.646Z,95219.00
2023-06-05T00:43:29.700Z,95219.00
2023-06-05T00:44:29.769Z,95219.00
2023-06-05T00:45:29.829Z,95217.00
2023-06-05T00:46:29.913Z,95221.00
2023-06-05T00:47:29.971Z,95217.00
2023-06-05T00:48:29.979Z,95217.00
2023-06-05T00:49:30.040Z,95217.00
2023-06-05T00:50:30.100Z,95215.00
2023-06-05T00:51:30.200Z,95219.00
2023-06-05T00:52:30.225Z,95219.00
2023-06-05T00:53:30.654Z,95219.00
2023-06-05T00:54:30.690Z,95217.00
2023-06-05T00:55:30.651Z,95217.00
2023-06-05T00:56:30.654Z,95217.00
2023-06-05T00:57:30.660Z,95215.00
2023-06-05T00:58:30.658Z,95214.00
2023-06-05T00:59:30.680Z,95214.00
2023-06-05T01:00:30.693Z,95212.00
2023-06-05T01:01:30.807Z,95212.00
2023-06-05T01:02:30.866Z,95212.00
2023-06-05T01:03:30.951Z,95212.00
2023-06-05T01:04:30.917Z,95210.00
2023-06-05T01:05:30.967Z,95208.00
2023-06-05T01:06:31.020Z,95208.00
2023-06-05T01:07:31.080Z,95208.00
2023-06-05T01:08:31.139Z,95206.00
2023-06-05T01:09:31.547Z,95206.00
2023-06-05T01:10:31.605Z,95210.00
2023-06-05T01:11:31.593Z,95208.00
2023-06-05T01:12:31.592Z,95208.00
2023-06-05T01:13:31.604Z,95206.00
2023-06-05T01:14:31.594Z,95206.00
2023-06-05T01:15:31.611Z,95208.00
2023-06-05T01:16:31.639Z,95206.00
2023-06-05T01:17:31.691Z,95208.00
2023-06-05T01:18:31.730Z,95210.00
2023-06-05T01:19:31.801Z,95208.00
2023-06-05T01:20:31.865Z,95208.00
2023-06-05T01:21:31.947Z,95208.00
2023-06-05T01:22:32.018Z,95206.00
2023-06-05T01:23:32.092Z,95206.00
2023-06-05T01:24:32.090Z,95202.00
2023-06-05T01:25:32.166Z,95200.00
2023-06-05T01:26:32.226Z,95200.00
2023-06-05T01:27:32.285Z,95198.00
2023-06-05T01:28:32.361Z,95198.00
2023-06-05T01:29:32.395Z,95200.00
2023-06-05T01:30:32.469Z,95198.00
2023-06-05T01:31:32.533Z,95200.00
2023-06-05T01:32:32.618Z,95198.00
2023-06-05T01:33:32.636Z,95198.00
2023-06-05T01:34:32.710Z,95198.00
2023-06-05T01:35:32.760Z,95198.00
2023-06-05T01:36:32.823Z,95196.00
2023-06-05T01:37:32.882Z,95198.00
2023-06-05T01:38:32.939Z,95196.00
2023-06-05T01:39:33.002Z,95198.00
2023-06-05T01:40:33.053Z,95198.00
2023-06-05T01:41:33.106Z,95196.00
2023-06-05T01:42:33.166Z,95194.00
2023-06-05T01:43:33.217Z,95194.00
2023-06-05T01:44:33.277Z,95192.00
2023-06-05T01:45:33.339Z,95194.00
2023-06-05T01:46:33.412Z,95194.00
2023-06-05T01:47:33.437Z,95194.00
2023-06-05T01:48:33.495Z,95194.00
2023-06-05T01:49:33.551Z,95194.00
2023-06-05T01:50:33.614Z,95190.00
2023-06-05T01:51:33.666Z,95194.00
2023-06-05T01:52:33.722Z,95194.00
2023-06-05T01:53:33.768Z,95194.00
2023-06-05T01:54:33.879Z,95194.00
2023-06-05T01:55:33.872Z,95192.00
2023-06-05T01:56:33.927Z,95192.00
2023-06-05T01:57:33.977Z,95192.00
2023-06-05T01:58:34.034Z,95192.00
2023-06-05T01:59:34.095Z,95190.00
2023-06-05T02:00:34.151Z,95188.00
2023-06-05T02:01:34.228Z,95192.00
2023-06-05T02:02:34.341Z,95190.00
2023-06-05T02:03:34.426Z,95190.00
2023-06-05T02:04:34.363Z,95192.00
2023-06-05T02:05:34.524Z,95194.00
2023-06-05T02:06:34.545Z,95194.00
2023-06-05T02:07:34.524Z,95196.00
2023-06-05T02:08:34.575Z,95196.00
2023-06-05T02:09:34.635Z,95196.00
2023-06-05T02:10:34.708Z,95194.00
2023-06-05T02:11:34.731Z,95194.00
2023-06-05T02:12:34.787Z,95196.00
2023-06-05T02:13:34.856Z,95194.00
2023-06-05T02:14:34.887Z,95196.00
2023-06-05T02:15:34.964Z,95194.00
2023-06-05T02:16:35.038Z,95194.00
2023-06-05T02:17:35.105Z,95196.00
2023-06-05T02:18:35.104Z,95198.00
2023-06-05T02:19:35.276Z,95192.00
2023-06-05T02:20:35.229Z,95190.00
2023-06-05T02:21:35.275Z,95192.00
2023-06-05T02:22:35.330Z,95190.00
2023-06-05T02:23:35.376Z,95184.00
2023-06-05T02:24:35.425Z,95182.00
2023-06-05T02:25:35.483Z,95182.00
2023-06-05T02:26:35.538Z,95180.00
2023-06-05T02:27:35.580Z,95180.00
2023-06-05T02:28:35.618Z,95180.00
2023-06-05T02:29:35.697Z,95182.00
2023-06-05T02:30:35.730Z,95178.00
2023-06-05T02:31:35.823Z,95176.00
2023-06-05T02:32:35.857Z,95178.00
2023-06-05T02:33:35.878Z,95176.00
2023-06-05T02:34:35.931Z,95178.00
2023-06-05T02:35:35.975Z,95176.00
2023-06-05T02:36:36.032Z,95176.00
2023-06-05T02:37:36.084Z,95175.00
2023-06-05T02:38:36.125Z,95173.00
2023-06-05T02:39:36.171Z,95180.00
2023-06-05T02:40:36.227Z,95178.00
2023-06-05T02:41:37.782Z,95176.00
2023-06-05T02:42:36.693Z,95176.00
2023-06-05T02:43:36.650Z,95175.00
2023-06-05T02:44:36.683Z,95176.00
2023-06-05T02:45:36.786Z,95176.00
2023-06-05T02:46:36.767Z,95178.00
2023-06-05T02:47:36.718Z,95178.00
2023-06-05T02:48:36.742Z,95180.00
2023-06-05T02:49:36.787Z,95184.00
2023-06-05T02:50:36.838Z,95184.00
2023-06-05T02:51:36.887Z,95186.00
2023-06-05T02:52:36.958Z,95188.00
2023-06-05T02:53:36.994Z,95188.00
2023-06-05T02:54:37.062Z,95188.00
2023-06-05T02:55:37.090Z,95186.00
2023-06-05T02:56:37.129Z,95190.00
2023-06-05T02:57:37.180Z,95192.00
2023-06-05T02:58:37.643Z,95192.00
2023-06-05T02:59:37.653Z,95190.00
2023-06-05T03:00:37.639Z,95190.00
2023-06-05T03:01:37.664Z,95192.00
2023-06-05T03:02:37.645Z,95192.00
2023-06-05T03:03:37.680Z,95190.00
2023-06-05T03:04:37.644Z,95190.00
2023-06-05T03:05:37.641Z,95190.00
2023-06-05T03:06:37.651Z,95188.00
2023-06-05T03:07:37.722Z,95184.00
2023-06-05T03:08:37.767Z,95184.00
2023-06-05T03:09:37.805Z,95184.00
2023-06-05T03:10:37.851Z,95182.00
2023-06-05T03:11:37.914Z,95184.00
2023-06-05T03:12:37.958Z,95184.00
2023-06-05T03:13:38.004Z,95180.00
2023-06-05T03:14:38.073Z,95182.00
2023-06-05T03:15:38.116Z,95182.00
2023-06-05T03:16:38.182Z,95182.00
2023-06-05T03:17:38.283Z,95180.00
2023-06-05T03:18:38.260Z,95180.00
2023-06-05T03:19:38.308Z,95180.00
2023-06-05T03:20:38.355Z,95180.00
2023-06-05T03:21:38.403Z,95180.00
2023-06-05T03:22:38.458Z,95180.00
2023-06-05T03:23:38.540Z,95180.00
2023-06-05T03:24:38.578Z,95178.00
2023-06-05T03:25:38.630Z,95178.00
2023-06-05T03:26:38.692Z,95178.00
2023-06-05T03:27:38.751Z,95176.00
2023-06-05T03:28:38.783Z,95175.00
2023-06-05T03:29:38.848Z,95175.00
2023-06-05T03:30:38.952Z,95175.00
2023-06-05T03:31:39.246Z,95175.00
2023-06-05T03:32:39.058Z,95175.00
2023-06-05T03:33:39.107Z,95175.00
2023-06-05T03:34:39.104Z,95173.00
2023-06-05T03:35:39.162Z,95171.00
2023-06-05T03:36:39.204Z,95165.00
2023-06-05T03:37:39.254Z,95165.00
2023-06-05T03:38:39.307Z,95163.00
2023-06-05T03:39:50.542Z,95163.00
2023-06-05T03:40:39.386Z,95163.00
2023-06-05T03:41:39.406Z,95161.00
2023-06-05T03:42:39.348Z,95161.00
2023-06-05T03:43:39.351Z,95161.00
2023-06-05T03:44:39.324Z,95163.00
2023-06-05T03:45:39.351Z,95161.00
2023-06-05T03:46:39.330Z,95161.00
2023-06-05T03:47:39.355Z,95161.00
2023-06-05T03:48:39.323Z,95153.00
2023-06-05T03:49:39.304Z,95161.00
2023-06-05T03:50:39.605Z,95161.00
2023-06-05T03:51:39.296Z,95161.00
2023-06-05T03:52:39.285Z,95161.00
2023-06-05T03:53:39.291Z,95153.00
2023-06-05T03:54:39.287Z,95161.00
2023-06-05T03:55:39.283Z,95163.00
2023-06-05T03:56:39.283Z,95163.00
2023-06-05T03:57:39.282Z,95161.00
2023-06-05T03:58:39.273Z,95163.00
2023-06-05T03:59:39.293Z,95163.00
2023-06-05T04:00:39.266Z,95167.00
2023-06-05T04:01:39.299Z,95165.00
2023-06-05T04:02:39.404Z,95167.00
2023-06-05T04:03:39.293Z,95167.00
2023-06-05T04:04:39.247Z,95169.00
2023-06-05T04:05:39.262Z,95169.00
2023-06-05T04:06:39.275Z,95171.00
2023-06-05T04:07:39.320Z,95169.00
2023-06-05T04:08:39.372Z,95171.00
2023-06-05T04:09:39.440Z,95171.00
2023-06-05T04:10:39.484Z,95171.00
2023-06-05T04:11:39.545Z,95173.00
2023-06-05T04:12:39.577Z,95175.00
2023-06-05T04:13:39.629Z,95175.00
2023-06-05T04:14:39.674Z,95175.00
2023-06-05T04:15:39.737Z,95175.00
2023-06-05T04:16:40.088Z,95176.00
2023-06-05T04:17:39.906Z,95176.00
2023-06-05T04:18:39.893Z,95176.00
2023-06-05T04:19:39.932Z,95176.00
2023-06-05T04:20:39.996Z,95178.00
2023-06-05T04:21:40.045Z,95178.00
2023-06-05T04:22:40.089Z,95178.00
2023-06-05T04:23:40.156Z,95180.00
2023-06-05T04:24:40.201Z,95178.00
2023-06-05T04:25:40.234Z,95180.00
2023-06-05T04:26:40.297Z,95178.00
2023-06-05T04:27:40.374Z,95178.00
2023-06-05T04:28:40.408Z,95176.00
2023-06-05T04:29:40.457Z,95173.00
2023-06-05T04:30:40.558Z,95173.00
2023-06-05T04:31:40.565Z,95175.00
2023-06-05T04:32:40.641Z,95173.00
2023-06-05T04:33:40.671Z,95175.00
2023-06-05T04:34:40.706Z,95173.00
2023-06-05T04:35:40.771Z,95173.00
2023-06-05T04:36:40.832Z,95175.00
2023-06-05T04:37:40.879Z,95173.00
2023-06-05T04:38:40.946Z,95173.00
2023-06-05T04:39:41.006Z,95171.00
2023-06-05T04:40:41.076Z,95169.00
2023-06-05T04:41:41.103Z,95171.00
2023-06-05T04:42:41.156Z,95169.00
2023-06-05T04:43:41.202Z,95169.00
2023-06-05T04:44:41.272Z,95173.00
2023-06-05T04:45:41.702Z,95167.00
2023-06-05T04:46:41.879Z,95169.00
2023-06-05T04:47:41.782Z,95173.00
2023-06-05T04:48:41.716Z,95171.00
2023-06-05T04:49:41.711Z,95173.00
2023-06-05T04:50:41.728Z,95176.00
2023-06-05T04:51:41.713Z,95176.00
2023-06-05T04:52:41.858Z,95178.00
2023-06-05T04:53:41.767Z,95182.00
2023-06-05T04:54:41.816Z,95178.00
2023-06-05T04:55:41.875Z,95180.00
2023-06-05T04:56:41.923Z,95182.00
2023-06-05T04:57:41.977Z,95182.00
2023-06-05T04:58:42.025Z,95182.00
2023-06-05T04:59:42.091Z,95180.00
2023-06-05T05:00:42.147Z,95182.00
2023-06-05T05:01:42.317Z,95182.00
2023-06-05T05:02:42.309Z,95180.00
2023-06-05T05:03:42.351Z,95178.00
2023-06-05T05:04:42.361Z,95180.00
2023-06-05T05:05:42.456Z,95180.00
2023-06-05T05:06:42.515Z,95178.00
2023-06-05T05:07:42.532Z,95176.00
2023-06-05T05:08:42.603Z,95176.00
2023-06-05T05:09:42.621Z,95178.00
2023-06-05T05:10:42.678Z,95180.00
2023-06-05T05:11:42.725Z,95176.00
2023-06-05T05:12:42.787Z,95178.00
2023-06-05T05:13:42.838Z,95176.00
2023-06-05T05:14:42.906Z,95176.00
2023-06-05T05:15:42.964Z,95175.00
2023-06-05T05:16:43.116Z,95176.00
2023-06-05T05:17:43.083Z,95176.00
2023-06-05T05:18:43.128Z,95176.00
2023-06-05T05:19:43.214Z,95175.00
2023-06-05T05:20:43.240Z,95175.00
2023-06-05T05:21:43.292Z,95171.00
2023-06-05T05:22:43.332Z,95169.00
2023-06-05T05:23:43.426Z,95173.00
2023-06-05T05:24:43.458Z,95173.00
2023-06-05T05:25:43.517Z,95171.00
2023-06-05T05:26:43.564Z,95173.00
2023-06-05T05:27:43.627Z,95171.00
2023-06-05T05:28:43.680Z,95171.00
2023-06-05T05:29:43.736Z,95171.00
2023-06-05T05:30:43.784Z,95171.00
2023-06-05T05:31:44.380Z,95175.00
2023-06-05T05:32:43.907Z,95171.00
2023-06-05T05:33:43.963Z,95175.00
2023-06-05T05:34:44.011Z,95176.00
2023-06-05T05:35:45.143Z,95176.00
2023-06-05T05:36:44.046Z,95178.00
2023-06-05T05:37:44.066Z,95178.00
2023-06-05T05:38:44.034Z,95178.00
2023-06-05T05:39:44.294Z,95178.00
2023-06-05T05:40:44.048Z,95176.00
2023-06-05T05:41:44.297Z,95176.00
2023-06-05T05:42:44.054Z,95176.00
2023-06-05T05:43:44.048Z,95176.00
2023-06-05T05:44:44.050Z,95178.00
2023-06-05T05:45:44.098Z,95178.00
2023-06-05T05:46:44.292Z,95178.00
2023-06-05T05:47:44.100Z,95178.00
2023-06-05T05:48:44.058Z,95182.00
2023-06-05T05:49:44.022Z,95180.00
2023-06-05T05:50:44.023Z,95178.00
2023-06-05T05:51:44.303Z,95180.00
2023-06-05T05:52:44.004Z,95176.00
2023-06-05T05:53:43.998Z,95176.00
2023-06-05T05:54:47.207Z,95176.00
2023-06-05T05:55:44.060Z,95180.00
2023-06-05T05:56:44.369Z,95176.00
2023-06-05T05:57:43.957Z,95173.00
2023-06-05T06:00:43.929Z,95176.00
2023-06-05T06:01:44.329Z,95175.00
2023-06-05T06:02:45.045Z,95175.00
2023-06-05T06:03:44.076Z,95173.00
2023-06-05T06:04:44.016Z,95175.00
2023-06-05T06:05:45.293Z,95176.00
2023-06-05T06:06:44.112Z,95175.00
2023-06-05T06:07:44.452Z,95176.00
2023-06-05T06:08:44.148Z,95176.00
2023-06-05T06:09:44.150Z,95178.00
2023-06-05T06:10:44.166Z,95176.00
2023-06-05T06:11:44.200Z,95173.00
2023-06-05T06:12:44.333Z,95178.00
2023-06-05T06:13:47.429Z,95175.00
2023-06-05T06:14:44.137Z,95175.00
2023-06-05T06:15:44.194Z,95176.00
2023-06-05T06:16:44.179Z,95175.00
2023-06-05T06:17:44.389Z,95175.00
2023-06-05T06:18:44.415Z,95175.00
2023-06-05T06:19:44.075Z,95173.00
2023-06-05T06:20:44.061Z,95173.00
2023-06-05T06:21:44.311Z,95173.00
2023-06-05T06:22:44.495Z,95175.00
2023-06-05T06:23:44.271Z,95175.00
2023-06-05T06:24:44.065Z,95175.00
2023-06-05T06:25:43.967Z,95173.00
2023-06-05T06:26:44.312Z,95175.00
2023-06-05T06:27:43.966Z,95175.00
2023-06-05T06:28:51.351Z,95176.00
2023-06-05T06:29:43.918Z,95175.00
2023-06-05T06:30:44.355Z,95173.00
2023-06-05T06:31:44.038Z,95173.00
2023-06-05T06:32:51.359Z,95171.00
2023-06-05T06:33:43.869Z,95171.00
2023-06-05T06:34:43.856Z,95171.00
2023-06-05T06:35:44.349Z,95169.00
2023-06-05T06:36:43.825Z,95171.00
2023-06-05T06:37:43.820Z,95173.00
2023-06-05T06:38:43.828Z,95171.00
2023-06-05T06:39:43.805Z,95167.00
2023-06-05T06:40:43.823Z,95173.00
2023-06-05T06:42:47.501Z,95173.00
2023-06-05T06:44:51.155Z,95171.00
2023-06-05T06:45:47.027Z,95173.00
2023-06-05T06:46:43.822Z,95173.00
2023-06-05T06:47:52.215Z,95169.00
2023-06-05T06:48:43.749Z,95169.00
2023-06-05T06:49:43.795Z,95167.00
2023-06-05T06:50:43.820Z,95169.00
2023-06-05T06:51:46.842Z,95167.00
2023-06-05T06:52:43.640Z,95167.00
2023-06-05T06:53:43.606Z,95167.00
2023-06-05T06:54:43.603Z,95167.00
2023-06-05T06:55:43.822Z,95169.00
2023-06-05T06:56:47.029Z,95169.00
2023-06-05T06:57:43.570Z,95169.00
2023-06-05T06:58:51.170Z,95169.00
2023-06-05T06:59:43.511Z,95167.00
2023-06-05T07:00:43.543Z,95169.00
2023-06-05T07:01:43.822Z,95169.00
2023-06-05T07:03:15.365Z,95167.00
2023-06-05T07:03:43.456Z,95165.00
2023-06-05T07:04:43.418Z,95165.00
2023-06-05T07:05:43.410Z,95167.00
2023-06-05T07:06:43.826Z,95167.00
2023-06-05T07:07:43.409Z,95167.00
2023-06-05T07:08:50.740Z,95169.00
2023-06-05T07:09:43.334Z,95165.00
2023-06-05T07:10:43.317Z,95163.00
2023-06-05T07:11:43.327Z,95163.00
2023-06-05T07:12:43.288Z,95165.00
2023-06-05T07:13:43.270Z,95161.00
2023-06-05T07:14:43.248Z,95161.00
2023-06-05T07:15:46.413Z,95161.00
2023-06-05T07:16:43.380Z,95163.00
2023-06-05T07:17:43.210Z,95161.00
2023-06-05T07:18:43.174Z,95153.00
2023-06-05T07:19:43.149Z,95161.00
2023-06-05T07:20:43.159Z,95151.00
2023-06-05T07:21:45.394Z,95153.00
2023-06-05T07:22:43.118Z,95153.00
2023-06-05T07:23:43.512Z,95151.00
2023-06-05T07:24:43.035Z,95153.00
2023-06-05T07:25:43.034Z,95153.00
2023-06-05T07:26:43.027Z,95153.00
2023-06-05T07:27:50.449Z,95153.00
2023-06-05T07:28:43.003Z,95151.00
2023-06-05T07:29:43.955Z,95153.00
2023-06-05T07:30:46.157Z,95149.00
2023-06-05T07:31:43.379Z,95151.00
2023-06-05T07:33:42.863Z,95151.00
2023-06-05T07:34:43.912Z,95151.00
2023-06-05T07:35:42.840Z,95153.00
2023-06-05T07:36:42.875Z,95151.00
2023-06-05T07:39:14.952Z,95153.00
2023-06-05T07:39:45.947Z,95153.00
2023-06-05T07:40:42.851Z,95149.00
2023-06-05T07:41:43.020Z,95149.00
2023-06-05T07:42:42.756Z,95149.00
2023-06-05T07:43:42.611Z,95145.00
2023-06-05T07:44:42.836Z,95145.00
2023-06-05T07:45:43.847Z,95145.00
2023-06-05T07:46:42.994Z,95145.00
2023-06-05T07:47:49.917Z,95147.00
2023-06-05T07:48:45.748Z,95143.00
2023-06-05T07:49:45.658Z,95141.00
2023-06-05T07:50:42.459Z,95143.00
2023-06-05T07:51:46.044Z,95141.00
2023-06-05T07:52:45.650Z,95141.00
2023-06-05T07:53:50.259Z,95141.00
2023-06-05T07:55:14.187Z,95139.00
2023-06-05T07:55:42.360Z,95137.00
2023-06-05T07:56:42.356Z,95137.00
2023-06-05T07:57:42.310Z,95135.00
2023-06-05T07:58:42.288Z,95135.00
2023-06-05T07:59:42.262Z,95133.00
2023-06-05T08:00:42.260Z,95131.00
2023-06-05T08:01:42.354Z,95131.00
2023-06-05T08:02:42.386Z,95131.00
2023-06-05T08:03:42.341Z,95131.00
2023-06-05T08:04:42.196Z,95129.00
2023-06-05T08:05:42.156Z,95129.00
2023-06-05T08:06:42.148Z,95129.00
2023-06-05T08:07:42.123Z,95129.00
2023-06-05T08:08:42.162Z,95131.00
2023-06-05T08:09:57.966Z,95127.00
2023-06-05T08:10:42.115Z,95129.00
2023-06-05T08:11:42.284Z,95125.00
2023-06-05T08:12:42.185Z,95127.00
2023-06-05T08:13:42.008Z,95129.00
2023-06-05T08:14:42.472Z,95127.00
2023-06-05T08:15:41.966Z,95129.00
2023-06-05T08:16:42.425Z,95125.00
2023-06-05T08:17:41.963Z,95125.00
2023-06-05T08:18:41.924Z,95127.00
2023-06-05T08:19:41.921Z,95127.00
2023-06-05T08:20:41.877Z,95125.00
2023-06-05T08:21:41.868Z,95125.00
2023-06-05T08:22:41.854Z,95127.00
2023-06-05T08:23:41.838Z,95125.00
2023-06-05T08:24:41.846Z,95127.00
2023-06-05T08:25:41.836Z,95123.00
2023-06-05T08:26:41.786Z,95123.00
2023-06-05T08:27:41.853Z,95122.00
2023-06-05T08:28:41.852Z,95122.00
2023-06-05T08:29:42.050Z,95120.00
2023-06-05T08:30:41.851Z,95122.00
2023-06-05T08:31:41.941Z,95120.00
2023-06-05T08:32:42.387Z,95123.00
2023-06-05T08:33:41.928Z,95122.00
2023-06-05T08:34:41.944Z,95123.00
2023-06-05T08:35:41.972Z,95122.00
2023-06-05T08:36:42.002Z,95118.00
2023-06-05T08:37:42.396Z,95120.00
2023-06-05T08:38:42.803Z,95120.00
2023-06-05T08:39:49.493Z,95118.00
2023-06-05T08:40:42.104Z,95116.00
2023-06-05T08:41:49.768Z,95118.00
2023-06-05T08:42:49.759Z,95120.00
2023-06-05T08:45:02.534Z,95114.00
2023-06-05T08:45:41.993Z,95110.00
2023-06-05T08:46:45.357Z,95116.00
2023-06-05T08:47:49.772Z,95114.00
2023-06-05T08:48:42.884Z,95112.00
2023-06-05T08:50:49.253Z,95114.00
2023-06-05T08:51:45.026Z,95114.00
2023-06-05T08:52:49.779Z,95112.00
2023-06-05T08:53:41.796Z,95112.00
2023-06-05T08:54:49.279Z,95114.00
2023-06-05T08:55:41.758Z,95114.00
2023-06-05T08:56:42.229Z,95114.00
2023-06-05T08:57:41.733Z,95114.00
2023-06-05T08:58:41.700Z,95112.00
2023-06-05T08:59:41.699Z,95116.00
2023-06-05T09:00:41.683Z,95114.00
2023-06-05T09:01:41.731Z,95118.00
2023-06-05T09:02:41.924Z,95118.00
2023-06-05T09:03:41.653Z,95116.00
2023-06-05T09:04:41.608Z,95120.00
2023-06-05T09:05:41.595Z,95120.00
2023-06-05T09:06:41.581Z,95116.00
2023-06-05T09:07:41.598Z,95118.00
2023-06-05T09:08:41.558Z,95116.00
2023-06-05T09:09:41.899Z,95118.00
2023-06-05T09:10:41.882Z,95116.00
2023-06-05T09:11:41.884Z,95114.00
2023-06-05T09:12:41.893Z,95114.00
2023-06-05T09:13:41.874Z,95114.00
2023-06-05T09:14:44.688Z,95110.00
2023-06-05T09:15:41.895Z,95112.00
2023-06-05T09:16:44.794Z,95112.00
2023-06-05T09:17:41.940Z,95114.00
2023-06-05T09:18:41.435Z,95110.00
2023-06-05T09:19:41.430Z,95112.00
2023-06-05T09:20:41.419Z,95116.00
2023-06-05T09:21:43.755Z,95112.00
2023-06-05T09:22:42.383Z,95110.00
2023-06-05T09:23:41.408Z,95112.00
2023-06-05T09:24:41.356Z,95110.00
2023-06-05T09:25:41.337Z,95114.00
2023-06-05T09:26:42.324Z,95110.00
2023-06-05T09:27:41.385Z,95112.00
2023-06-05T09:28:56.991Z,95112.00
2023-06-05T09:29:48.688Z,95112.00
2023-06-05T09:30:56.901Z,95110.00
2023-06-05T09:31:42.293Z,95110.00
2023-06-05T09:32:41.266Z,95112.00
2023-06-05T09:33:41.425Z,95112.00
2023-06-05T09:34:41.328Z,95112.00
2023-06-05T09:35:41.244Z,95112.00
2023-06-05T09:36:41.198Z,95114.00
2023-06-05T09:37:41.393Z,95110.00
2023-06-05T09:38:41.392Z,95114.00
2023-06-05T09:39:41.179Z,95114.00
2023-06-05T09:40:41.142Z,95112.00
2023-06-05T09:41:41.130Z,95114.00
2023-06-05T09:42:41.393Z,95114.00
2023-06-05T09:43:41.245Z,95116.00
2023-06-05T09:44:41.117Z,95112.00
2023-06-05T09:45:41.090Z,95112.00
2023-06-05T09:46:42.127Z,95110.00
2023-06-05T09:47:53.274Z,95110.00
2023-06-05T09:48:41.475Z,95110.00
2023-06-05T09:49:41.256Z,95112.00
2023-06-05T09:50:41.171Z,95110.00
2023-06-05T09:51:41.397Z,95108.00
2023-06-05T09:52:41.057Z,95112.00
2023-06-05T09:53:41.048Z,95112.00
2023-06-05T09:54:41.037Z,95112.00
2023-06-05T09:55:41.879Z,95112.00
2023-06-05T09:56:41.026Z,95112.00
2023-06-05T09:57:41.007Z,95112.00
2023-06-05T09:58:40.986Z,95108.00
2023-06-05T09:59:40.982Z,95110.00
2023-06-05T10:00:40.996Z,95110.00
2023-06-05T10:01:41.400Z,95106.00
2023-06-05T10:02:42.420Z,95106.00
2023-06-05T10:03:42.389Z,95106.00
2023-06-05T10:04:41.508Z,95104.00
2023-06-05T10:05:41.942Z,95108.00
2023-06-05T10:06:40.905Z,95108.00
2023-06-05T10:07:40.908Z,95106.00
2023-06-05T10:08:40.909Z,95106.00
2023-06-05T10:09:41.407Z,95104.00
2023-06-05T10:10:40.927Z,95108.00
2023-06-05T10:11:40.932Z,95110.00
2023-06-05T10:12:40.932Z,95112.00
2023-06-05T10:13:40.945Z,95110.00
2023-06-05T10:14:44.677Z,95110.00
2023-06-05T10:15:42.404Z,95110.00
2023-06-05T10:16:40.950Z,95108.00
2023-06-05T10:17:41.039Z,95110.00
2023-06-05T10:18:40.934Z,95110.00
2023-06-05T10:19:41.426Z,95108.00
2023-06-05T10:20:41.428Z,95110.00
2023-06-05T10:21:40.944Z,95108.00
2023-06-05T10:22:41.422Z,95110.00
2023-06-05T10:23:41.026Z,95108.00
2023-06-05T10:24:40.940Z,95106.00
2023-06-05T10:25:40.965Z,95106.00
2023-06-05T10:26:41.444Z,95104.00
2023-06-05T10:27:40.968Z,95104.00
2023-06-05T10:28:41.024Z,95104.00
2023-06-05T10:29:41.040Z,95104.00
2023-06-05T10:30:41.429Z,95106.00
2023-06-05T10:31:41.123Z,95106.00
2023-06-05T10:32:41.427Z,95108.00
2023-06-05T10:33:41.175Z,95108.00
2023-06-05T10:34:48.894Z,95106.00
2023-06-05T10:35:41.169Z,95110.00
2023-06-05T10:36:41.192Z,95110.00
2023-06-05T10:37:41.415Z,95110.00
2023-06-05T10:38:41.137Z,95108.00
2023-06-05T10:39:41.168Z,95108.00
2023-06-05T10:40:41.115Z,95112.00
2023-06-05T10:41:41.121Z,95110.00
2023-06-05T10:42:41.430Z,95108.00
2023-06-05T10:43:42.493Z,95110.00
2023-06-05T10:44:48.489Z,95108.00
2023-06-05T10:45:41.079Z,95104.00
2023-06-05T10:46:41.109Z,95106.00
2023-06-05T10:47:41.443Z,95104.00
2023-06-05T10:48:41.069Z,95104.00
2023-06-05T10:49:41.035Z,95106.00
2023-06-05T10:50:42.043Z,95106.00
2023-06-05T10:51:41.367Z,95104.00
2023-06-05T10:52:41.424Z,95104.00
2023-06-05T10:53:40.996Z,95108.00
2023-06-05T10:54:40.998Z,95104.00
2023-06-05T10:55:40.982Z,95104.00
2023-06-05T10:56:40.972Z,95104.00
2023-06-05T10:57:40.967Z,95104.00
2023-06-05T10:58:41.421Z,95106.00
2023-06-05T10:59:41.019Z,95104.00
2023-06-05T11:00:41.421Z,95106.00
2023-06-05T11:01:44.207Z,95106.00
2023-06-05T11:02:40.950Z,95106.00
2023-06-05T11:03:40.959Z,95106.00
2023-06-05T11:04:40.913Z,95104.00
2023-06-05T11:05:40.905Z,95104.00
2023-06-05T11:06:40.896Z,95102.00
2023-06-05T11:07:40.899Z,95104.00
2023-06-05T11:08:41.425Z,95104.00
2023-06-05T11:09:40.880Z,95106.00
2023-06-05T11:10:42.229Z,95104.00
2023-06-05T11:11:40.885Z,95106.00
2023-06-05T11:12:40.934Z,95104.00
2023-06-05T11:13:41.430Z,95102.00
2023-06-05T11:14:40.991Z,95102.00
2023-06-05T11:15:41.060Z,95102.00
2023-06-05T11:16:41.053Z,95102.00
2023-06-05T11:17:41.478Z,95100.00
2023-06-05T11:18:41.065Z,95098.00
2023-06-05T11:19:42.084Z,95096.00
2023-06-05T11:20:41.432Z,95096.00
2023-06-05T11:21:41.130Z,95100.00
2023-06-05T11:22:41.427Z,95100.00
2023-06-05T11:23:41.179Z,95098.00
2023-06-05T11:24:41.168Z,95100.00
2023-06-05T11:25:48.629Z,95102.00
2023-06-05T11:26:41.162Z,95098.00
2023-06-05T11:27:41.429Z,95106.00
2023-06-05T11:28:41.133Z,95104.00
2023-06-05T11:29:41.432Z,95106.00
2023-06-05T11:30:46.757Z,95104.00
2023-06-05T11:31:41.179Z,95104.00
2023-06-05T11:32:41.088Z,95102.00
2023-06-05T11:33:41.116Z,95102.00
2023-06-05T11:34:41.049Z,95098.00
2023-06-05T11:35:42.024Z,95102.00
2023-06-05T11:36:41.035Z,95102.00
2023-06-05T11:37:47.215Z,95100.00
2023-06-05T11:38:40.968Z,95100.00
2023-06-05T11:39:40.978Z,95096.00
2023-06-05T11:40:41.003Z,95100.00
2023-06-05T11:41:40.967Z,95096.00
2023-06-05T11:42:40.941Z,95094.00
2023-06-05T11:43:40.932Z,95096.00
2023-06-05T11:44:40.937Z,95092.00
2023-06-05T11:45:42.278Z,95092.00
2023-06-05T11:46:41.065Z,95092.00
2023-06-05T11:47:40.954Z,95088.00
2023-06-05T11:48:40.894Z,95090.00
2023-06-05T11:49:40.854Z,95088.00
2023-06-05T11:50:40.838Z,95090.00
2023-06-05T11:51:40.858Z,95086.00
2023-06-05T11:52:40.806Z,95090.00